IBE06KY LEMD-LIMC
Flight info
| Callsign | IBE06KY |
|---|---|
| Flight time | N/A |
| Altitude | 36000 |
| Route | PINAR N870 SEGRE DCT YAKXU DCT RONNY DCT TOPTU DCT TOU DCT GAI DCT MEN DCT NINUN DCT LATAM DCT ROMAM/N0451F370 DCT ETIDO DCT NEDRU DCT RILIP DCT EMMEF DCT LAPRI/N0446F360 DCT MOGBO/N0448F370 DCT TOP/N0360F190 M135 ASTIG |
| Aircraft | A321/M-SDE1FGHIRWXYJ1/SB1 |
Departure
| Time | 2026-05-06 18:13 |
|---|---|
| Airport | Adolfo Suárez Madrid–Barajas Airport (LEMD) |
Arrival
| Time | N/A |
|---|---|
| Airport | Milan Malpensa International Airport (LIMC) |
| Time | Latitude | Longitude | Altitude | Speed | Heading |
|---|---|---|---|---|---|
| 2026-05-06 17:41 | 40.49271 | -3.58960 | 2032 ft | 0 kts | 271° |
| 2026-05-06 17:59 | 40.49270 | -3.58951 | 2037 ft | 4 kts | 269° |
| 2026-05-06 18:00 | 40.49274 | -3.58916 | 2022 ft | 4 kts | 249° |
| 2026-05-06 18:00 | 40.49287 | -3.58888 | 2032 ft | 4 kts | 210° |
| 2026-05-06 18:00 | 40.49300 | -3.58882 | 2030 ft | 0 kts | 179° |
| 2026-05-06 18:02 | 40.49296 | -3.58882 | 2031 ft | 4 kts | 180° |
| 2026-05-06 18:03 | 40.49232 | -3.58882 | 2024 ft | 13 kts | 179° |
| 2026-05-06 18:03 | 40.49153 | -3.58881 | 2022 ft | 10 kts | 180° |
| 2026-05-06 18:03 | 40.49097 | -3.58881 | 2022 ft | 7 kts | 180° |
| 2026-05-06 18:03 | 40.49023 | -3.58880 | 2024 ft | 15 kts | 179° |
| 2026-05-06 18:04 | 40.48932 | -3.58879 | 2027 ft | 11 kts | 180° |
| 2026-05-06 18:04 | 40.48867 | -3.58879 | 2030 ft | 8 kts | 180° |
| 2026-05-06 18:04 | 40.48824 | -3.58879 | 2022 ft | 6 kts | 180° |
| 2026-05-06 18:04 | 40.48771 | -3.58858 | 2030 ft | 11 kts | 132° |
| 2026-05-06 18:05 | 40.48759 | -3.58739 | 2022 ft | 16 kts | 90° |
| 2026-05-06 18:05 | 40.48760 | -3.58607 | 2022 ft | 13 kts | 90° |
| 2026-05-06 18:05 | 40.48759 | -3.58487 | 2018 ft | 14 kts | 90° |
| 2026-05-06 18:05 | 40.48760 | -3.58356 | 2014 ft | 14 kts | 90° |
| 2026-05-06 18:06 | 40.48761 | -3.58223 | 2009 ft | 14 kts | 89° |
| 2026-05-06 18:06 | 40.48763 | -3.58092 | 2004 ft | 14 kts | 75° |
| 2026-05-06 18:06 | 40.48838 | -3.58043 | 2003 ft | 11 kts | 19° |
| 2026-05-06 18:06 | 40.48858 | -3.57959 | 2000 ft | 12 kts | 90° |
| 2026-05-06 18:07 | 40.48858 | -3.57811 | 1994 ft | 19 kts | 92° |
| 2026-05-06 18:07 | 40.48858 | -3.57638 | 1991 ft | 18 kts | 88° |
| 2026-05-06 18:07 | 40.48859 | -3.57480 | 1988 ft | 17 kts | 90° |
| 2026-05-06 18:07 | 40.48861 | -3.57336 | 1985 ft | 15 kts | 89° |
| 2026-05-06 18:08 | 40.48860 | -3.57204 | 1983 ft | 15 kts | 91° |
| 2026-05-06 18:08 | 40.48861 | -3.57055 | 1980 ft | 19 kts | 89° |
| 2026-05-06 18:08 | 40.48862 | -3.56879 | 1977 ft | 20 kts | 89° |
| 2026-05-06 18:08 | 40.48863 | -3.56693 | 1974 ft | 21 kts | 90° |
| 2026-05-06 18:09 | 40.48863 | -3.56490 | 1968 ft | 24 kts | 89° |
| 2026-05-06 18:09 | 40.48867 | -3.56300 | 1963 ft | 13 kts | 87° |
| 2026-05-06 18:09 | 40.48960 | -3.56244 | 1962 ft | 22 kts | 360° |
| 2026-05-06 18:09 | 40.49133 | -3.56246 | 1962 ft | 25 kts | 360° |
| 2026-05-06 18:10 | 40.49306 | -3.56247 | 1962 ft | 24 kts | 359° |
| 2026-05-06 18:10 | 40.49473 | -3.56248 | 1961 ft | 23 kts | 0° |
| 2026-05-06 18:10 | 40.49633 | -3.56248 | 1961 ft | 22 kts | 359° |
| 2026-05-06 18:10 | 40.49786 | -3.56249 | 1961 ft | 21 kts | 0° |
| 2026-05-06 18:11 | 40.49917 | -3.56240 | 1963 ft | 13 kts | 26° |
| 2026-05-06 18:11 | 40.49938 | -3.56167 | 1959 ft | 14 kts | 87° |
| 2026-05-06 18:11 | 40.49944 | -3.56049 | 1958 ft | 5 kts | 77° |
| 2026-05-06 18:11 | 40.49948 | -3.56032 | 1958 ft | 0 kts | 72° |
| 2026-05-06 18:12 | 40.49966 | -3.55985 | 1959 ft | 13 kts | 53° |
| 2026-05-06 18:12 | 40.50054 | -3.55922 | 1960 ft | 16 kts | 4° |
| 2026-05-06 18:12 | 40.50301 | -3.55923 | 1961 ft | 67 kts | 359° |
| 2026-05-06 18:12 | 40.50976 | -3.55925 | 1962 ft | 125 kts | 360° |
| 2026-05-06 18:13 | 40.52011 | -3.55932 | 1956 ft | 169 kts | 360° |
| 2026-05-06 18:13 | 40.53201 | -3.55937 | 2524 ft | 166 kts | 0° |
| 2026-05-06 18:13 | 40.54329 | -3.55826 | 3211 ft | 161 kts | 14° |
| 2026-05-06 18:13 | 40.55385 | -3.55376 | 3854 ft | 158 kts | 19° |
| 2026-05-06 18:14 | 40.56433 | -3.54945 | 4423 ft | 158 kts | 18° |
| 2026-05-06 18:14 | 40.57491 | -3.54540 | 4915 ft | 163 kts | 18° |
| 2026-05-06 18:14 | 40.58618 | -3.54042 | 5115 ft | 184 kts | 29° |
| 2026-05-06 18:14 | 40.59535 | -3.52757 | 5276 ft | 202 kts | 62° |
| 2026-05-06 18:15 | 40.60241 | -3.51080 | 5410 ft | 223 kts | 63° |
| 2026-05-06 18:15 | 40.61027 | -3.49198 | 5538 ft | 248 kts | 63° |
| 2026-05-06 18:15 | 40.61898 | -3.47117 | 5873 ft | 270 kts | 62° |
| 2026-05-06 18:15 | 40.62819 | -3.44916 | 6522 ft | 277 kts | 62° |
| 2026-05-06 18:16 | 40.63751 | -3.42687 | 7251 ft | 280 kts | 62° |
| 2026-05-06 18:16 | 40.64388 | -3.41165 | 7769 ft | 281 kts | 62° |
| 2026-05-06 18:16 | 40.65313 | -3.38963 | 8520 ft | 284 kts | 62° |
| 2026-05-06 18:16 | 40.66272 | -3.36679 | 9266 ft | 287 kts | 62° |
| 2026-05-06 18:17 | 40.67240 | -3.34371 | 9977 ft | 291 kts | 62° |
| 2026-05-06 18:17 | 40.68256 | -3.31947 | 10176 ft | 313 kts | 62° |
| 2026-05-06 18:17 | 40.69344 | -3.29342 | 10334 ft | 334 kts | 62° |
| 2026-05-06 18:17 | 40.70482 | -3.26622 | 10806 ft | 342 kts | 62° |
| 2026-05-06 18:18 | 40.71638 | -3.23859 | 11422 ft | 347 kts | 62° |
| 2026-05-06 18:18 | 40.72807 | -3.21058 | 12065 ft | 350 kts | 62° |
| 2026-05-06 18:18 | 40.73984 | -3.18227 | 12707 ft | 354 kts | 62° |
| 2026-05-06 18:18 | 40.75173 | -3.15364 | 13355 ft | 358 kts | 62° |
| 2026-05-06 18:19 | 40.76374 | -3.12473 | 13935 ft | 361 kts | 62° |
| 2026-05-06 18:19 | 40.77588 | -3.09549 | 14489 ft | 366 kts | 62° |
| 2026-05-06 18:19 | 40.78817 | -3.06591 | 15018 ft | 370 kts | 62° |
| 2026-05-06 18:19 | 40.80062 | -3.03593 | 15537 ft | 374 kts | 62° |
| 2026-05-06 18:20 | 40.81317 | -3.00562 | 16052 ft | 379 kts | 62° |
| 2026-05-06 18:20 | 40.82587 | -2.97492 | 16552 ft | 383 kts | 61° |
| 2026-05-06 18:20 | 40.83867 | -2.94388 | 17062 ft | 387 kts | 61° |
| 2026-05-06 18:20 | 40.85160 | -2.91246 | 17563 ft | 391 kts | 61° |
| 2026-05-06 18:21 | 40.86468 | -2.88070 | 18066 ft | 395 kts | 61° |
| 2026-05-06 18:21 | 40.87790 | -2.84869 | 18521 ft | 399 kts | 61° |
| 2026-05-06 18:21 | 40.89121 | -2.81644 | 18977 ft | 401 kts | 61° |
| 2026-05-06 18:21 | 40.90462 | -2.78390 | 19416 ft | 404 kts | 61° |
| 2026-05-06 18:22 | 40.91808 | -2.75121 | 19802 ft | 407 kts | 61° |
| 2026-05-06 18:22 | 40.93167 | -2.71819 | 20198 ft | 410 kts | 60° |
| 2026-05-06 18:22 | 40.94790 | -2.68726 | 20574 ft | 411 kts | 45° |
| 2026-05-06 18:22 | 40.96818 | -2.66058 | 20951 ft | 412 kts | 43° |
| 2026-05-06 18:23 | 40.98876 | -2.63398 | 21357 ft | 415 kts | 42° |
| 2026-05-06 18:23 | 41.00950 | -2.60722 | 21734 ft | 418 kts | 42° |
| 2026-05-06 18:23 | 41.03037 | -2.58026 | 22121 ft | 421 kts | 42° |
| 2026-05-06 18:23 | 41.05137 | -2.55306 | 22492 ft | 424 kts | 42° |
| 2026-05-06 18:24 | 41.07250 | -2.52566 | 22863 ft | 427 kts | 42° |
| 2026-05-06 18:24 | 41.09375 | -2.49807 | 23247 ft | 429 kts | 42° |
| 2026-05-06 18:24 | 41.11518 | -2.47020 | 23630 ft | 432 kts | 42° |
| 2026-05-06 18:24 | 41.13663 | -2.44225 | 23981 ft | 434 kts | 42° |
| 2026-05-06 18:25 | 41.15815 | -2.41412 | 24328 ft | 436 kts | 42° |
| 2026-05-06 18:25 | 41.17980 | -2.38581 | 24670 ft | 438 kts | 42° |
| 2026-05-06 18:25 | 41.20157 | -2.35737 | 25002 ft | 440 kts | 42° |
| 2026-05-06 18:25 | 41.22344 | -2.32879 | 25341 ft | 442 kts | 42° |
| 2026-05-06 18:26 | 41.24538 | -2.30008 | 25682 ft | 444 kts | 42° |
| 2026-05-06 18:26 | 41.26744 | -2.27119 | 25996 ft | 447 kts | 42° |
| 2026-05-06 18:26 | 41.28965 | -2.24209 | 26302 ft | 449 kts | 42° |
| 2026-05-06 18:26 | 41.31199 | -2.21274 | 26612 ft | 452 kts | 42° |
| 2026-05-06 18:27 | 41.33436 | -2.18329 | 26945 ft | 454 kts | 42° |
| 2026-05-06 18:27 | 41.35678 | -2.15377 | 27328 ft | 454 kts | 42° |
| 2026-05-06 18:27 | 41.37930 | -2.12410 | 27659 ft | 456 kts | 42° |
| 2026-05-06 18:27 | 41.40193 | -2.09429 | 27959 ft | 459 kts | 42° |
| 2026-05-06 18:28 | 41.42466 | -2.06434 | 28259 ft | 461 kts | 42° |
| 2026-05-06 18:28 | 41.44754 | -2.03418 | 28552 ft | 463 kts | 42° |
| 2026-05-06 18:28 | 41.47046 | -2.00390 | 28850 ft | 466 kts | 42° |
| 2026-05-06 18:28 | 41.49350 | -1.97341 | 29123 ft | 468 kts | 42° |
| 2026-05-06 18:29 | 41.51663 | -1.94276 | 29407 ft | 470 kts | 42° |
| 2026-05-06 18:29 | 41.53990 | -1.91192 | 29676 ft | 472 kts | 42° |
| 2026-05-06 18:29 | 41.56326 | -1.88093 | 29913 ft | 475 kts | 42° |
| 2026-05-06 18:29 | 41.58671 | -1.84979 | 30119 ft | 477 kts | 42° |
| 2026-05-06 18:30 | 41.61024 | -1.81849 | 30305 ft | 479 kts | 42° |
| 2026-05-06 18:30 | 41.63386 | -1.78697 | 30495 ft | 481 kts | 43° |
| 2026-05-06 18:30 | 41.65754 | -1.75532 | 30707 ft | 482 kts | 43° |
| 2026-05-06 18:30 | 41.68122 | -1.72367 | 30994 ft | 481 kts | 43° |
| 2026-05-06 18:31 | 41.70491 | -1.69201 | 31259 ft | 481 kts | 43° |
| 2026-05-06 18:31 | 41.72858 | -1.66041 | 31518 ft | 480 kts | 43° |
| 2026-05-06 18:31 | 41.75221 | -1.62882 | 31776 ft | 480 kts | 43° |
| 2026-05-06 18:31 | 41.77583 | -1.59715 | 32080 ft | 479 kts | 43° |
| 2026-05-06 18:32 | 41.79931 | -1.56561 | 32388 ft | 478 kts | 43° |
| 2026-05-06 18:32 | 41.82278 | -1.53411 | 32677 ft | 477 kts | 42° |
| 2026-05-06 18:32 | 41.84628 | -1.50255 | 32919 ft | 478 kts | 42° |
| 2026-05-06 18:32 | 41.86979 | -1.47093 | 33164 ft | 479 kts | 43° |
| 2026-05-06 18:33 | 41.89327 | -1.43927 | 33394 ft | 479 kts | 43° |
| 2026-05-06 18:33 | 41.91671 | -1.40759 | 33657 ft | 479 kts | 43° |
| 2026-05-06 18:33 | 41.94019 | -1.37582 | 33926 ft | 479 kts | 43° |
| 2026-05-06 18:33 | 41.96363 | -1.34403 | 34135 ft | 479 kts | 43° |
| 2026-05-06 18:34 | 41.98707 | -1.31226 | 34364 ft | 479 kts | 43° |
| 2026-05-06 18:34 | 42.01047 | -1.28049 | 34590 ft | 478 kts | 43° |
| 2026-05-06 18:34 | 42.03384 | -1.24876 | 34801 ft | 477 kts | 43° |
| 2026-05-06 18:34 | 42.05690 | -1.21742 | 34990 ft | 477 kts | 43° |
| 2026-05-06 18:35 | 42.08024 | -1.18564 | 35180 ft | 478 kts | 43° |
| 2026-05-06 18:35 | 42.10360 | -1.15382 | 35369 ft | 478 kts | 43° |
| 2026-05-06 18:35 | 42.12698 | -1.12198 | 35519 ft | 479 kts | 43° |
| 2026-05-06 18:35 | 42.15043 | -1.09004 | 35667 ft | 480 kts | 43° |
| 2026-05-06 18:36 | 42.17389 | -1.05797 | 35830 ft | 480 kts | 43° |
| 2026-05-06 18:36 | 42.19733 | -1.02590 | 35973 ft | 479 kts | 43° |
| 2026-05-06 18:36 | 42.24384 | -0.96221 | 35961 ft | 475 kts | 43° |
| 2026-05-06 18:37 | 42.29014 | -0.89883 | 35951 ft | 474 kts | 43° |
| 2026-05-06 18:37 | 42.33631 | -0.83526 | 35952 ft | 474 kts | 43° |
| 2026-05-06 18:38 | 42.38237 | -0.77154 | 35958 ft | 474 kts | 43° |
| 2026-05-06 18:38 | 42.42846 | -0.70772 | 35961 ft | 474 kts | 43° |
| 2026-05-06 18:39 | 42.47461 | -0.64395 | 35963 ft | 474 kts | 43° |
| 2026-05-06 18:40 | 42.54371 | -0.54802 | 35975 ft | 474 kts | 43° |
| 2026-05-06 18:40 | 42.58968 | -0.48383 | 35971 ft | 474 kts | 43° |
| 2026-05-06 18:41 | 42.63567 | -0.41956 | 35995 ft | 474 kts | 43° |
| 2026-05-06 18:41 | 42.68162 | -0.35539 | 35989 ft | 473 kts | 43° |
| 2026-05-06 18:42 | 42.72712 | -0.29154 | 35995 ft | 473 kts | 43° |
| 2026-05-06 18:42 | 42.77287 | -0.22719 | 35992 ft | 473 kts | 43° |
| 2026-05-06 18:43 | 42.81780 | -0.16166 | 36006 ft | 474 kts | 46° |
| 2026-05-06 18:43 | 42.85972 | -0.09217 | 36001 ft | 474 kts | 50° |
| 2026-05-06 18:44 | 42.90048 | -0.02141 | 36018 ft | 475 kts | 49° |
| 2026-05-06 18:44 | 42.94188 | 0.04884 | 36005 ft | 475 kts | 48° |
| 2026-05-06 18:45 | 42.98382 | 0.11860 | 36002 ft | 475 kts | 48° |
| 2026-05-06 18:45 | 43.02582 | 0.18849 | 36029 ft | 476 kts | 49° |
| 2026-05-06 18:46 | 43.06758 | 0.25863 | 36033 ft | 475 kts | 49° |
| 2026-05-06 18:46 | 43.10916 | 0.32893 | 36032 ft | 475 kts | 49° |
| 2026-05-06 18:47 | 43.15074 | 0.39917 | 36028 ft | 475 kts | 49° |
| 2026-05-06 18:47 | 43.19233 | 0.46949 | 36010 ft | 475 kts | 49° |
| 2026-05-06 18:48 | 43.23386 | 0.54007 | 36031 ft | 476 kts | 49° |
| 2026-05-06 18:48 | 43.27539 | 0.61073 | 36029 ft | 475 kts | 49° |
| 2026-05-06 18:49 | 43.31675 | 0.68127 | 36026 ft | 474 kts | 49° |
| 2026-05-06 18:49 | 43.35800 | 0.75187 | 36022 ft | 474 kts | 49° |
| 2026-05-06 18:50 | 43.39927 | 0.82259 | 36007 ft | 474 kts | 49° |
| 2026-05-06 18:50 | 43.44048 | 0.89337 | 36023 ft | 474 kts | 49° |
| 2026-05-06 18:51 | 43.48168 | 0.96433 | 36023 ft | 474 kts | 49° |
| 2026-05-06 18:51 | 43.52248 | 1.03467 | 36017 ft | 473 kts | 49° |
| 2026-05-06 18:52 | 43.56352 | 1.10558 | 36015 ft | 473 kts | 49° |
| 2026-05-06 18:52 | 43.60446 | 1.17663 | 35991 ft | 473 kts | 49° |
| 2026-05-06 18:53 | 43.64539 | 1.24781 | 35996 ft | 473 kts | 50° |
| 2026-05-06 18:53 | 43.68622 | 1.31912 | 35995 ft | 473 kts | 50° |
| 2026-05-06 18:54 | 43.72580 | 1.39184 | 35992 ft | 473 kts | 52° |
| 2026-05-06 18:54 | 43.76444 | 1.46561 | 35993 ft | 474 kts | 52° |
| 2026-05-06 18:55 | 43.80317 | 1.53927 | 35998 ft | 473 kts | 52° |